This is the latest recevied weather packets stored in our database for station/object VE6CWS-7. If no packets are shown the sender has not sent any weather packets the latest 1 day(s).
| Time | Temp. | Humidity | Pressure | Rain* | Wind** | Luminosity | Snow |
|---|---|---|---|---|---|---|---|
| 1778100336 | 17.22° C | 30% | 1009.4 hPa | 0 mm | - | - | - |
| 1778098533 | 17.78° C | 28% | 1009.9 hPa | 0 mm | - | - | - |
| 1778097630 | 17.22° C | 29% | 1010.2 hPa | 0 mm | - | - | - |
| 1778086856 | 12.78° C | 37% | 1013.6 hPa | 0 mm | - | - | - |
| 1778085950 | 11.11° C | 38% | 1014 hPa | 0 mm | - | - | - |
| 1778078722 | 5° C | 58% | 1015.7 hPa | 0 mm | - | - | - |
| 1778077816 | 3.33° C | 65% | 1015.9 hPa | 0 mm | - | - | - |
| 1778070654 | -2.78° C | 75% | 1016.8 hPa | 0 mm | - | - | - |
| 1778067948 | -2.78° C | 74% | 1017.1 hPa | 0 mm | - | - | - |
| 1778066145 | -2.22° C | 74% | 1017.4 hPa | 0 mm | - | - | - |
| 1778060732 | -2.22° C | 69% | 1018.3 hPa | 0 mm | - | - | - |
| 1778058928 | -2.22° C | 69% | 1018.7 hPa | 0 mm | - | - | - |
| 1778058029 | -2.22° C | 65% | 1019 hPa | 0 mm | - | - | - |
| 1778057121 | -1.67° C | 64% | 1019.4 hPa | 0 mm | - | - | - |
| 1778056220 | -1.11° C | 67% | 1019.5 hPa | 0 mm | - | - | - |
| 1778054415 | -1.11° C | 65% | 1019.5 hPa | 0 mm | - | - | - |
| 1778053511 | -1.11° C | 59% | 1019.6 hPa | 0 mm | - | - | - |
| 1778052609 | 0° C | 55% | 1019.8 hPa | 0 mm | - | - | - |
| 1778051705 | 1.11° C | 53% | 1019.8 hPa | 0 mm | - | - | - |
| 1778049961 | 0.56° C | 58% | 1020.2 hPa | 0 mm | - | - | - |
| 1778049059 | 1.67° C | 55% | 1020.3 hPa | 0 mm | - | - | - |
| 1778048155 | 1.67° C | 55% | 1020.3 hPa | 0 mm | - | - | - |
| 1778047253 | 1.67° C | 53% | 1020.3 hPa | 0 mm | - | - | - |
| 1778046352 | 2.78° C | 52% | 1020.3 hPa | 0 mm | - | - | - |
| 1778044566 | 2.78° C | 51% | 1020.4 hPa | 0 mm | - | - | - |
* Rain latest hour (hover to see other rain measurements)
** Current wind speed in m/s (hover to see current wind gust speed)